ETAR

Ramstein Air Base Airport

Ramstein, Germany
TAF AMD ETAR 171437Z 1714/1816 35009KT 9999 VCTS SCT020 BKN040CB QNH2997INS BECMG 1721/1722 36009KT 8000 -SHRA SCT020 BKN040 QNH3008INS BECMG 1803/1804 VRB06KT 9999 NSW SCT025 SCT050 QNH3010INS BECMG 1810/1811 VRB06KT 9999 SCT050 QNH3012INS TX31/1715Z TN09/1804Z
Issued Valid From Valid To
Aug-17 @ 14:37 UTC
(19 minutes ago)
Aug-17 @ 14:00 UTC
(56 minutes ago)
Aug-18 @ 16:00 UTC
(-1 days ago)
Aug-17 @ 14:00 to Aug-17 @ 21:00
TAF AMD ETAR 171437Z 1714/1816 35009KT 9999 VCTS SCT020 BKN040CB QNH2997INS
Wind Visibility Clouds Conditions Readings
350° at 9 knots 10,000+ meters
  • Scattered at 2,000' AGL
  • Broken at 4,000' AGL
  • Area Thunderstorm
Altimeter 29.97" Hg
Pressure 1015 hPa
Becoming Aug-17 @ 21:00 to Aug-18 @ 03:00
BECMG 1721/1722 36009KT 8000 -SHRA SCT020 BKN040 QNH3008INS
Wind Visibility Clouds Conditions Readings
360° at 9 knots 7,998 meters
  • Scattered at 2,000' AGL
  • Broken at 4,000' AGL
  • Light Rain
Altimeter 30.09" Hg
Pressure 1019 hPa
Becoming Aug-18 @ 03:00 to Aug-18 @ 10:00
BECMG 1803/1804 VRB06KT 9999 NSW SCT025 SCT050 QNH3010INS
Wind Visibility Clouds Conditions Readings
Variable at 6 knots 10,000+ meters
  • Scattered at 2,500' AGL
  • Scattered at 5,000' AGL
Altimeter 30.09" Hg
Pressure 1019 hPa
Becoming Aug-18 @ 10:00 to Aug-18 @ 16:00
BECMG 1810/1811 VRB06KT 9999 SCT050 QNH3012INS TX31/1715Z TN09/1804Z
Wind Visibility Clouds Conditions Readings
Variable at 6 knots 10,000+ meters
  • Scattered at 5,000' AGL
Altimeter 30.12" Hg
Pressure 1020 hPa
TAF AMD ETAR 171437Z 1714/1816 35009KT 9999 VCTS SCT020 BKN040CB QNH2997INS BECMG 1721/1722 36009KT 8000 -SHRA SCT020 BKN040 QNH3008INS BECMG 1803/1804 VRB06KT 9999 NSW SCT025 SCT050 QNH3010INS BECMG 1810/1811 VRB06KT 9999 SCT050 QNH3012INS TX31/1715Z TN09/1804Z
Issued Aug-17 @ 14:37 UTC
(19 minutes ago)
Valid From Aug-17 @ 14:00 UTC
(56 minutes ago)
Valid To Aug-18 @ 16:00 UTC
(-1 days ago)
Aug-17 @ 14:00 - Aug-17 @ 21:00
Wind Visibility
350° at 9 knots 10,000+ meters
Clouds
  • Scattered at 2,000' AGL
  • Broken at 4,000' AGL
Conditions
  • Area Thunderstorm
Becoming Aug-17 @ 21:00 - Aug-18 @ 03:00
Wind Visibility
360° at 9 knots 7,998 meters
Clouds
  • Scattered at 2,000' AGL
  • Broken at 4,000' AGL
Conditions
  • Light Rain
Becoming Aug-18 @ 03:00 - Aug-18 @ 10:00
Wind Visibility
Variable at 6 knots 10,000+ meters
Clouds
  • Scattered at 2,500' AGL
  • Scattered at 5,000' AGL
Conditions
Becoming Aug-18 @ 10:00 - Aug-18 @ 16:00
Wind Visibility
Variable at 6 knots 10,000+ meters
Clouds
  • Scattered at 5,000' AGL
Conditions